Easterwood Field
KCLL : rendu visible

Aérodrome :











RETROUVEZ-NOUS SUR...

 
LOGIN :

S'inscrire | Disclaimer

   EN    FR    IT 

 









Légende :    VFR   VFR Marginal   IFR   IFR Intensif   IFR Très Intensif
Visi : 
Plafond : 
>= 8 km
>= 3000ft
5 à 8 km
1000 à 3000 ft
1500m à 5 km
500 à 1000 ft
800 à 1500m
200 à 500 ft
< 800m
< 200 ft
Symboles :   Orages  Brouillard  Fortes neiges  Fortes précipitations  Vent > 20 kt






- Altitude de l'aérodrome : 320 ft
- Code IATA : CLL


KCLL - Easterwood Field

DERNIER METAR :
  • 050553Z AUTO 18008KT 10SM CLR 27/23 A2987 RMK AO2 SLP108 T02670228 10333 20267 403610228 50004

METARs EXPIRÉS :
  • 050453Z AUTO 17005KT 10SM CLR 28/22 A2988 RMK AO2 SLP111 T02780217
  • 050353Z AUTO 17005KT 10SM CLR 28/22 A2987 RMK AO2 SLP109 T02830217

TAF KCLL
Valide du 05 à 06h jusqu'au 06 à 06h UTC


050520Z 0506/0606 VRB06KT P6SM FEW050
FM050800 VRB04KT P6SM SCT100
FM051500 22009KT P6SM SCT100
FM060100 18006KT P6SM FEW120 BKN250
FIR KZHU / Amérique du Nord



MET'MAP, la Météo Aéronautique d'un coup d'oeil ! - Copyright ORBIFLY Décembre 2007 - Disclaimer

ORBIFLY MET'MAP TEAM :

Programmation & Développement : Alexandra Zaïnal
Sur une idée originale de : Baudouin d'Aumeries
Assistance à la programmation : Marc-Olivier Méhu
Soutien technique & logistique : Manuel Goepfert

Contact : metmap@orbifly.com




SOURCES & CREDITS :

   NOAA       Earth
Advisory